Time;durP1;ratioP1;P1;durP2;ratioP2;P2;SDS_P1;SDS_P2;PMS_P1;PMS_P2;Temp;Humidity;BMP_temperature;BMP_pressure;BME280_temperature;BME280_humidity;BME280_pressure;Samples;Min_cycle;Max_cycle;Signal;HPM_P1;HPM_P2
2023/02/02 00:01:53;;;;;;;4.77;3.70;;;8.50;99.90;;;;;;5053344;28;20968;-73
2023/02/02 00:04:25;;;;;;;5.00;4.60;;;8.40;99.90;;;;;;5053256;28;20415;-72
2023/02/02 00:06:51;;;;;;;4.47;4.17;;;8.50;99.90;;;;;;5044255;28;20432;-72
2023/02/02 00:09:18;;;;;;;4.27;3.97;;;8.50;99.90;;;;;;5034105;28;20417;-72
2023/02/02 00:11:46;;;;;;;4.90;4.40;;;8.60;99.90;;;;;;5032535;28;20416;-72
2023/02/02 00:14:12;;;;;;;4.30;4.00;;;8.50;99.90;;;;;;5033416;28;20464;-72
2023/02/02 00:16:42;;;;;;;4.10;3.87;;;8.60;99.90;;;;;;5014524;28;20429;-72
2023/02/02 00:19:20;;;;;;;4.37;3.97;;;8.60;99.90;;;;;;5032675;28;20471;-72
2023/02/02 00:21:46;;;;;;;5.00;4.70;;;8.60;99.90;;;;;;5032213;28;20806;-72
2023/02/02 00:24:14;;;;;;;4.83;4.30;;;8.60;99.90;;;;;;5032628;28;20444;-72
2023/02/02 00:26:41;;;;;;;4.67;4.37;;;8.50;99.90;;;;;;5031798;28;20437;-72
2023/02/02 00:29:13;;;;;;;6.00;4.43;;;8.50;99.90;;;;;;5041051;28;20852;-72
2023/02/02 00:31:38;;;;;;;5.20;4.83;;;8.60;99.90;;;;;;5052251;28;20385;-72
2023/02/02 00:34:04;;;;;;;6.23;5.63;;;8.60;99.90;;;;;;5052899;28;20561;-72
2023/02/02 00:36:30;;;;;;;6.07;5.47;;;8.60;99.90;;;;;;5034839;28;20325;-72
2023/02/02 00:38:55;;;;;;;6.97;5.20;;;8.60;99.90;;;;;;5032781;28;20257;-72
2023/02/02 00:41:21;;;;;;;6.50;5.27;;;8.50;99.90;;;;;;5032661;28;20222;-72
2023/02/02 00:45:14;;;;;;;6.63;6.03;;;8.50;99.90;;;;;;5032080;28;20221;-72
2023/02/02 00:46:39;;;;;;;7.37;6.50;;;8.60;99.90;;;;;;5036965;28;20182;-72
2023/02/02 00:49:05;;;;;;;7.23;6.53;;;8.60;99.90;;;;;;5052578;28;20420;-72
2023/02/02 00:51:30;;;;;;;8.00;7.30;;;8.60;99.90;;;;;;5051892;28;20450;-72
2023/02/02 00:53:56;;;;;;;11.10;9.07;;;8.60;99.90;;;;;;5052507;28;20819;-72
2023/02/02 00:56:22;;;;;;;12.83;10.47;;;8.70;99.90;;;;;;5048598;28;20244;-72
2023/02/02 00:58:47;;;;;;;10.90;9.57;;;8.50;99.90;;;;;;5031699;28;20570;-72
2023/02/02 01:01:21;;;;;;;9.70;8.90;;;8.50;99.90;;;;;;5031717;28;20185;-72
2023/02/02 01:03:47;;;;;;;12.07;9.20;;;8.50;99.90;;;;;;5032004;28;20175;-72
2023/02/02 01:06:13;;;;;;;10.87;9.03;;;8.60;99.90;;;;;;5045603;28;20474;-72
2023/02/02 01:08:39;;;;;;;10.57;8.87;;;8.60;99.90;;;;;;5050565;28;20967;-72
2023/02/02 01:11:06;;;;;;;9.50;8.57;;;8.60;99.90;;;;;;5052525;28;20177;-72
2023/02/02 01:13:32;;;;;;;9.13;8.20;;;8.60;99.90;;;;;;5050266;28;20932;-73
2023/02/02 01:15:59;;;;;;;8.20;7.30;;;8.60;99.90;;;;;;5052063;28;20415;-72
2023/02/02 01:18:25;;;;;;;8.73;7.20;;;8.60;99.90;;;;;;5051729;28;20418;-73
2023/02/02 01:20:57;;;;;;;7.87;7.10;;;8.70;99.90;;;;;;5052392;28;20412;-72
2023/02/02 01:23:23;;;;;;;9.50;7.17;;;8.70;99.90;;;;;;5052323;28;20440;-72
2023/02/02 01:25:59;;;;;;;9.43;6.70;;;8.70;99.90;;;;;;5051406;28;20487;-72
2023/02/02 01:28:26;;;;;;;7.17;5.90;;;8.70;99.90;;;;;;5051093;28;20216;-72
2023/02/02 01:30:52;;;;;;;12.00;6.50;;;8.70;99.90;;;;;;5052424;28;20415;-72
2023/02/02 01:33:18;;;;;;;6.43;5.70;;;8.90;99.90;;;;;;5052285;28;20416;-72
2023/02/02 01:35:49;;;;;;;6.63;5.33;;;8.80;99.90;;;;;;5007101;28;20428;-72
2023/02/02 01:38:16;;;;;;;5.20;4.80;;;8.70;99.90;;;;;;5032365;28;20480;-72
2023/02/02 01:41:06;;;;;;;9.60;5.30;;;8.70;99.90;;;;;;5031302;28;20472;-73
2023/02/02 01:43:43;;;;;;;7.90;4.80;;;8.80;99.90;;;;;;5031627;28;20409;-72
2023/02/02 01:46:11;;;;;;;7.80;5.00;;;8.80;99.90;;;;;;5032407;28;20755;-72
2023/02/02 01:48:40;;;;;;;5.60;5.20;;;8.90;99.90;;;;;;5013099;28;20544;-73
2023/02/02 01:51:12;;;;;;;4.87;4.47;;;8.80;99.90;;;;;;5032207;28;20492;-72
2023/02/02 01:53:38;;;;;;;8.50;4.20;;;8.80;99.90;;;;;;5031605;28;20531;-72
2023/02/02 01:56:07;;;;;;;6.03;4.63;;;8.80;99.90;;;;;;5032038;28;20397;-72
2023/02/02 01:58:36;;;;;;;7.10;4.67;;;8.90;99.90;;;;;;5031659;28;20475;-72
2023/02/02 02:01:03;;;;;;;8.40;4.60;;;8.90;99.90;;;;;;5032268;28;20409;-72
2023/02/02 02:03:31;;;;;;;5.10;4.33;;;8.90;99.90;;;;;;5031372;28;20409;-72
2023/02/02 02:06:00;;;;;;;6.40;5.83;;;9.00;99.90;;;;;;5044437;28;20870;-72
2023/02/02 02:08:51;;;;;;;6.20;4.80;;;9.00;99.90;;;;;;5049121;28;20448;-72
2023/02/02 02:11:18;;;;;;;8.20;5.80;;;9.00;99.90;;;;;;5051617;28;20428;-72
2023/02/02 02:16:53;;;;;;;11.13;6.80;;;9.00;99.90;;;;;;5034590;28;20400;-73
2023/02/02 02:19:19;;;;;;;8.77;7.33;;;9.00;99.90;;;;;;5035480;28;20443;-72
2023/02/02 02:28:00;;;;;;;12.73;8.17;;;9.00;99.90;;;;;;5034147;28;20823;-72
2023/02/02 02:30:32;;;;;;;11.77;9.43;;;9.10;99.90;;;;;;5034856;28;20445;-72
2023/02/02 02:33:14;;;;;;;10.53;8.87;;;9.10;99.90;;;;;;5034518;28;20421;-72
2023/02/02 02:35:48;;;;;;;10.70;9.40;;;9.10;99.90;;;;;;5034275;28;20504;-73
2023/02/02 02:38:34;;;;;;;12.67;8.73;;;9.10;99.90;;;;;;5052698;28;20823;-72
2023/02/02 02:41:12;;;;;;;19.97;9.77;;;9.20;99.90;;;;;;5054466;28;20460;-72
2023/02/02 02:43:45;;;;;;;12.30;9.67;;;9.20;99.90;;;;;;5054293;28;20401;-73
2023/02/02 02:46:12;;;;;;;10.50;9.50;;;9.20;99.90;;;;;;5036995;28;20451;-72
2023/02/02 02:48:38;;;;;;;12.40;9.90;;;9.20;99.90;;;;;;5054102;28;20452;-72
2023/02/02 02:51:42;;;;;;;11.53;8.93;;;9.20;99.90;;;;;;5054690;28;20401;-72
2023/02/02 02:54:08;;;;;;;12.30;9.17;;;9.10;99.90;;;;;;5051660;28;20420;-72
2023/02/02 02:56:42;;;;;;;13.70;9.73;;;9.10;99.90;;;;;;5035247;28;20479;-73
2023/02/02 02:59:31;;;;;;;10.83;8.23;;;9.20;99.90;;;;;;5034713;28;20459;-72
2023/02/02 03:02:05;;;;;;;19.13;9.70;;;9.20;99.90;;;;;;5050099;28;20436;-72
2023/02/02 03:04:46;;;;;;;13.10;9.23;;;9.20;99.90;;;;;;5054508;28;20817;-72
2023/02/02 03:07:34;;;;;;;12.70;8.63;;;9.20;99.90;;;;;;5054364;28;20464;-72
2023/02/02 03:10:02;;;;;;;11.40;9.90;;;9.10;99.90;;;;;;5054283;28;20474;-72
2023/02/02 03:12:28;;;;;;;12.93;9.80;;;9.10;99.90;;;;;;5054439;28;20451;-72
2023/02/02 03:14:53;;;;;;;13.33;8.90;;;9.10;99.90;;;;;;5054278;28;20417;-72
2023/02/02 03:17:19;;;;;;;10.67;8.47;;;9.20;99.90;;;;;;5054134;28;20220;-72
2023/02/02 03:19:45;;;;;;;10.90;8.73;;;9.10;99.90;;;;;;5052431;28;20217;-72
2023/02/02 03:22:10;;;;;;;9.43;8.50;;;9.20;99.90;;;;;;5036453;28;20234;-72
2023/02/02 03:24:36;;;;;;;11.97;7.77;;;9.20;99.90;;;;;;5051755;28;20173;-72
2023/02/02 03:27:02;;;;;;;10.07;7.10;;;9.20;99.90;;;;;;5052450;28;20209;-72
2023/02/02 03:29:28;;;;;;;9.13;6.73;;;9.10;99.90;;;;;;5054019;28;20170;-72
2023/02/02 03:31:54;;;;;;;6.90;6.07;;;9.10;99.90;;;;;;5051794;28;20202;-72
2023/02/02 03:34:20;;;;;;;8.73;6.23;;;9.20;99.90;;;;;;5036081;28;20506;-73
2023/02/02 03:36:45;;;;;;;9.20;5.60;;;9.10;99.90;;;;;;5053030;28;20178;-72
2023/02/02 03:39:11;;;;;;;6.80;6.10;;;9.10;99.90;;;;;;5053485;28;20213;-72
2023/02/02 03:41:36;;;;;;;9.70;6.00;;;9.10;99.90;;;;;;5064860;28;20665;-73
2023/02/02 03:44:02;;;;;;;8.03;6.20;;;9.10;99.90;;;;;;5073795;28;20272;-72
2023/02/02 03:46:28;;;;;;;7.40;5.90;;;9.10;99.90;;;;;;5073531;28;20173;-72
2023/02/02 03:48:54;;;;;;;5.33;4.87;;;9.10;99.90;;;;;;5071623;28;20263;-72
2023/02/02 03:51:19;;;;;;;8.17;5.60;;;9.10;99.90;;;;;;5072006;28;20451;-72
2023/02/02 03:53:48;;;;;;;5.83;5.13;;;9.10;99.90;;;;;;5071227;28;20192;-72
2023/02/02 03:56:15;;;;;;;5.93;5.43;;;9.10;99.90;;;;;;5057885;28;20205;-72
2023/02/02 03:58:40;;;;;;;6.90;5.83;;;9.10;99.90;;;;;;5052867;28;20474;-73
2023/02/02 04:01:10;;;;;;;5.73;4.93;;;9.10;99.90;;;;;;5065111;28;20435;-72
2023/02/02 04:03:35;;;;;;;5.60;5.10;;;9.30;99.90;;;;;;5072697;28;20204;-73
2023/02/02 04:06:01;;;;;;;5.77;5.17;;;9.30;99.90;;;;;;5071978;28;20485;-72
2023/02/02 04:08:27;;;;;;;5.87;5.30;;;9.30;99.90;;;;;;5057997;28;20201;-77
2023/02/02 04:10:53;;;;;;;8.70;5.00;;;9.30;99.90;;;;;;5053153;28;20427;-76
2023/02/02 04:13:19;;;;;;;5.40;4.90;;;9.40;99.90;;;;;;5052088;28;20190;-76
2023/02/02 04:15:45;;;;;;;5.53;4.33;;;9.40;99.90;;;;;;5052897;28;20733;-77
2023/02/02 04:18:11;;;;;;;4.93;4.53;;;9.40;99.90;;;;;;5072322;28;20193;-76
2023/02/02 04:20:36;;;;;;;6.30;4.60;;;9.40;99.90;;;;;;5072588;28;20228;-75
2023/02/02 04:23:02;;;;;;;4.30;4.00;;;9.30;99.90;;;;;;5071261;28;20431;-77
2023/02/02 04:25:28;;;;;;;5.03;4.63;;;9.40;99.90;;;;;;5060742;28;20197;-77
2023/02/02 04:27:53;;;;;;;5.23;4.10;;;9.40;99.90;;;;;;5052360;28;20216;-77
2023/02/02 04:30:19;;;;;;;4.67;4.27;;;9.40;99.90;;;;;;5053089;28;20190;-76
2023/02/02 04:32:46;;;;;;;5.17;4.77;;;9.30;99.90;;;;;;5052561;28;20202;-77
2023/02/02 04:35:11;;;;;;;4.80;4.37;;;9.40;99.90;;;;;;5052173;28;20413;-72
2023/02/02 04:37:37;;;;;;;5.47;5.03;;;9.30;99.90;;;;;;5052019;28;20466;-72
2023/02/02 04:40:03;;;;;;;6.87;5.00;;;9.40;99.90;;;;;;5048813;28;20218;-72
2023/02/02 04:42:31;;;;;;;5.37;4.97;;;9.40;99.90;;;;;;5038234;28;20190;-72
2023/02/02 04:44:57;;;;;;;6.00;5.50;;;9.40;99.90;;;;;;5045177;28;20769;-72
2023/02/02 04:47:23;;;;;;;7.10;6.23;;;9.40;99.90;;;;;;5050596;28;20459;-72
2023/02/02 04:49:49;;;;;;;7.73;6.53;;;9.40;99.90;;;;;;5041803;28;20639;-72
2023/02/02 04:52:15;;;;;;;9.13;7.43;;;9.40;99.90;;;;;;5032667;28;20503;-72
2023/02/02 04:54:40;;;;;;;8.93;7.47;;;9.30;99.90;;;;;;5032008;28;20228;-72
2023/02/02 04:57:06;;;;;;;12.00;10.47;;;9.40;99.90;;;;;;5032663;28;20442;-72
2023/02/02 04:59:32;;;;;;;9.00;8.10;;;9.40;99.90;;;;;;5015327;28;20584;-72
2023/02/02 05:02:01;;;;;;;10.07;8.57;;;9.40;99.90;;;;;;5031055;28;20642;-72
2023/02/02 05:04:27;;;;;;;13.70;10.03;;;9.40;99.90;;;;;;5032178;28;20187;-72
2023/02/02 05:06:53;;;;;;;14.27;11.43;;;9.40;99.90;;;;;;5014314;28;20433;-72
2023/02/02 05:09:19;;;;;;;15.07;9.30;;;9.40;99.90;;;;;;5033059;28;20182;-73
2023/02/02 05:11:44;;;;;;;14.50;10.03;;;9.40;99.90;;;;;;5048735;28;20189;-73
2023/02/02 05:14:10;;;;;;;12.67;10.80;;;9.40;99.90;;;;;;5046438;28;20260;-73
2023/02/02 05:16:36;;;;;;;16.17;10.90;;;9.40;99.90;;;;;;5046620;28;20183;-72
2023/02/02 05:19:02;;;;;;;14.07;9.47;;;9.40;99.90;;;;;;5043781;28;20197;-73
2023/02/02 05:21:28;;;;;;;15.70;11.67;;;9.50;99.90;;;;;;5041176;28;20182;-71
2023/02/02 05:23:53;;;;;;;13.73;9.37;;;9.40;99.90;;;;;;5033591;28;20200;-72
2023/02/02 05:26:24;;;;;;;17.50;12.53;;;9.40;99.90;;;;;;5035201;28;20421;-72
2023/02/02 05:28:50;;;;;;;14.90;10.23;;;9.50;99.90;;;;;;5031597;28;20578;-72
2023/02/02 05:31:16;;;;;;;19.83;11.00;;;9.40;99.90;;;;;;5031972;28;20901;-72
2023/02/02 05:33:42;;;;;;;22.77;11.33;;;9.40;99.90;;;;;;5031294;28;20421;-73
2023/02/02 05:36:08;;;;;;;18.70;10.63;;;9.40;99.90;;;;;;5040996;28;20446;-72
2023/02/02 05:38:34;;;;;;;16.23;10.40;;;9.40;99.90;;;;;;5052255;28;20184;-72
2023/02/02 05:41:00;;;;;;;20.10;12.80;;;9.30;99.90;;;;;;5050902;28;21054;-71
2023/02/02 05:43:28;;;;;;;18.30;11.20;;;9.30;99.90;;;;;;5048406;28;20428;-70
2023/02/02 05:45:53;;;;;;;22.03;13.90;;;9.30;99.90;;;;;;5051440;28;20462;-71
2023/02/02 05:48:19;;;;;;;19.97;12.70;;;9.30;99.90;;;;;;5054943;28;20453;-71
2023/02/02 05:50:54;;;;;;;22.43;12.17;;;9.40;99.90;;;;;;5055302;28;20626;-71
2023/02/02 05:53:20;;;;;;;16.60;11.50;;;9.30;99.90;;;;;;5055464;28;20431;-84
2023/02/02 05:55:46;;;;;;;17.77;12.10;;;9.30;99.90;;;;;;5037543;28;20405;-77
2023/02/02 05:58:12;;;;;;;20.80;13.27;;;9.30;99.90;;;;;;5037954;28;20474;-77
2023/02/02 06:00:38;;;;;;;22.60;11.53;;;9.50;99.90;;;;;;5055733;28;20364;-77
2023/02/02 06:03:04;;;;;;;18.50;11.93;;;9.60;99.90;;;;;;5055022;28;20908;-77
2023/02/02 06:05:30;;;;;;;25.20;12.53;;;9.80;99.90;;;;;;5055667;28;20175;-71
2023/02/02 06:07:55;;;;;;;18.73;10.80;;;9.90;99.90;;;;;;5055014;28;20643;-71
2023/02/02 06:10:21;;;;;;;22.80;12.77;;;9.90;99.90;;;;;;5044104;28;20191;-71
2023/02/02 06:12:46;;;;;;;14.70;10.87;;;9.80;99.90;;;;;;5044678;28;20182;-70
2023/02/02 06:15:12;;;;;;;22.93;10.90;;;9.80;99.90;;;;;;5055855;28;20177;-70
2023/02/02 06:17:38;;;;;;;13.27;10.07;;;9.80;99.90;;;;;;5055112;28;20172;-69
2023/02/02 06:20:04;;;;;;;16.03;9.13;;;9.70;99.90;;;;;;5054754;28;20169;-70
2023/02/02 06:22:31;;;;;;;13.93;11.50;;;9.70;99.90;;;;;;5055649;28;20222;-70
2023/02/02 06:24:57;;;;;;;17.93;9.27;;;9.60;99.90;;;;;;5054706;28;20447;-70
2023/02/02 06:27:23;;;;;;;15.87;10.80;;;9.70;99.90;;;;;;5043661;28;20860;-71
2023/02/02 06:29:49;;;;;;;14.80;8.97;;;9.70;99.90;;;;;;5034651;28;20425;-71
2023/02/02 06:32:14;;;;;;;18.17;10.93;;;9.60;99.90;;;;;;5034939;28;20671;-71
2023/02/02 06:34:40;;;;;;;23.07;13.07;;;9.60;99.90;;;;;;5035126;28;20556;-71
2023/02/02 06:37:06;;;;;;;16.77;10.10;;;9.50;99.90;;;;;;5034381;28;20261;-71
2023/02/02 06:39:31;;;;;;;16.33;11.93;;;9.40;99.90;;;;;;5034687;28;20167;-71
2023/02/02 06:41:57;;;;;;;15.70;10.33;;;9.50;99.90;;;;;;5035675;28;20222;-72
2023/02/02 06:44:23;;;;;;;14.70;9.97;;;9.40;99.90;;;;;;5025559;28;20628;-71
2023/02/02 06:46:48;;;;;;;19.53;10.23;;;9.40;99.90;;;;;;5048801;28;20193;-71
2023/02/02 06:49:14;;;;;;;15.83;9.20;;;9.40;99.90;;;;;;5052961;28;20189;-71
2023/02/02 06:51:40;;;;;;;14.00;9.13;;;9.40;99.90;;;;;;5054647;28;20612;-71
2023/02/02 06:54:06;;;;;;;18.80;11.83;;;9.40;99.90;;;;;;5035810;28;20178;-72
2023/02/02 06:56:32;;;;;;;17.27;9.07;;;9.40;99.90;;;;;;5054106;28;20904;-72
2023/02/02 06:58:57;;;;;;;16.17;9.30;;;9.40;99.90;;;;;;5053099;28;20178;-72
2023/02/02 07:01:23;;;;;;;12.37;8.83;;;9.40;99.90;;;;;;5054263;28;20470;-72
2023/02/02 07:03:49;;;;;;;15.07;8.87;;;9.30;99.90;;;;;;5053921;28;20265;-72
2023/02/02 07:06:19;;;;;;;11.47;9.30;;;9.30;99.90;;;;;;5036524;28;20174;-72
2023/02/02 07:08:45;;;;;;;18.47;9.27;;;9.40;99.90;;;;;;5054022;28;20554;-73
2023/02/02 07:11:11;;;;;;;18.07;9.43;;;9.40;99.90;;;;;;5025271;28;20536;-72
2023/02/02 07:13:37;;;;;;;13.43;8.80;;;9.40;99.90;;;;;;5015924;28;20534;-72
2023/02/02 07:16:08;;;;;;;12.37;8.67;;;9.40;99.90;;;;;;5052491;28;20181;-72
2023/02/02 07:18:35;;;;;;;14.50;8.83;;;9.30;99.90;;;;;;5053876;28;20182;-72
2023/02/02 07:21:02;;;;;;;10.37;8.50;;;9.40;99.90;;;;;;5053528;28;20423;-72
2023/02/02 07:23:28;;;;;;;11.47;9.33;;;9.30;99.90;;;;;;5054096;28;20412;-72
2023/02/02 07:26:04;;;;;;;13.60;9.23;;;9.20;99.90;;;;;;5053720;28;20736;-72
2023/02/02 07:28:31;;;;;;;14.33;8.93;;;9.20;99.90;;;;;;5054088;28;20280;-72
2023/02/02 07:30:57;;;;;;;12.13;10.90;;;9.20;99.90;;;;;;5053668;28;20420;-72
2023/02/02 07:33:22;;;;;;;18.70;9.00;;;9.20;99.90;;;;;;5053836;28;20736;-72
2023/02/02 07:35:48;;;;;;;12.73;9.50;;;9.20;99.90;;;;;;5053583;28;20911;-72
2023/02/02 07:38:14;;;;;;;12.27;9.87;;;9.20;99.90;;;;;;5053003;28;20238;-72
2023/02/02 07:40:45;;;;;;;18.00;9.73;;;9.30;99.90;;;;;;5051132;28;20753;-72
2023/02/02 07:43:11;;;;;;;15.63;10.10;;;9.20;99.90;;;;;;5051420;28;20205;-73
2023/02/02 07:45:36;;;;;;;10.40;9.40;;;9.20;99.90;;;;;;5035521;28;20418;-72
2023/02/02 07:48:02;;;;;;;16.47;11.20;;;9.20;99.90;;;;;;5049057;28;20487;-72
2023/02/02 07:50:29;;;;;;;13.07;9.67;;;9.30;99.90;;;;;;5033142;28;20181;-74
2023/02/02 07:52:57;;;;;;;14.33;9.07;;;9.30;99.90;;;;;;5050858;28;20431;-72
2023/02/02 07:55:23;;;;;;;12.10;10.47;;;9.30;99.90;;;;;;5040926;28;20425;-72
2023/02/02 07:57:51;;;;;;;17.87;10.50;;;9.20;99.90;;;;;;5035443;28;20470;-73
2023/02/02 08:00:17;;;;;;;15.40;9.30;;;9.40;99.90;;;;;;5038143;28;20205;-71
2023/02/02 08:02:43;;;;;;;17.40;9.47;;;9.40;99.90;;;;;;5045512;28;20900;-71
2023/02/02 08:05:09;;;;;;;17.40;10.20;;;9.40;99.90;;;;;;5036035;28;21043;-71
2023/02/02 08:07:35;;;;;;;17.60;9.87;;;9.30;99.90;;;;;;5027207;28;20228;-72
2023/02/02 08:10:01;;;;;;;16.50;11.47;;;9.40;99.90;;;;;;5020827;28;20219;-71
2023/02/02 08:12:27;;;;;;;17.00;9.07;;;9.40;99.90;;;;;;5044235;28;20453;-73
2023/02/02 08:14:52;;;;;;;14.70;8.93;;;9.40;99.90;;;;;;5032266;28;20178;-71
2023/02/02 08:17:18;;;;;;;15.07;9.80;;;9.40;99.90;;;;;;5035180;28;20947;-71
2023/02/02 08:19:44;;;;;;;12.30;9.70;;;9.50;99.90;;;;;;5053031;28;20204;-71
2023/02/02 08:22:10;;;;;;;13.10;10.37;;;9.40;99.90;;;;;;5044338;28;20432;-71
2023/02/02 08:24:39;;;;;;;11.87;9.70;;;9.40;99.90;;;;;;5033003;28;20182;-71
2023/02/02 08:27:07;;;;;;;14.37;10.20;;;9.40;99.90;;;;;;5041817;28;20685;-71
2023/02/02 08:29:34;;;;;;;11.73;9.30;;;9.40;99.90;;;;;;5051293;28;20440;-71
2023/02/02 08:32:00;;;;;;;15.47;9.27;;;9.40;99.90;;;;;;5052078;28;20787;-72
2023/02/02 08:34:26;;;;;;;12.50;8.80;;;9.30;99.90;;;;;;5052873;28;20451;-71
2023/02/02 08:36:52;;;;;;;12.57;11.40;;;9.40;99.90;;;;;;5052098;28;20896;-72
2023/02/02 08:39:18;;;;;;;11.90;8.17;;;9.40;99.90;;;;;;5052669;28;20636;-71
2023/02/02 08:41:44;;;;;;;12.57;11.20;;;9.40;99.90;;;;;;5050878;28;20222;-71
2023/02/02 08:44:13;;;;;;;14.87;10.20;;;9.40;99.90;;;;;;5049526;28;20182;-71
2023/02/02 08:46:39;;;;;;;12.40;10.20;;;9.40;99.90;;;;;;5052642;28;20484;-71
2023/02/02 08:49:05;;;;;;;17.53;10.57;;;9.50;99.90;;;;;;5017790;28;20486;-71
2023/02/02 08:51:31;;;;;;;12.37;9.77;;;9.60;99.90;;;;;;5052580;28;20424;-71
2023/02/02 08:53:56;;;;;;;14.00;9.53;;;9.50;99.90;;;;;;5051951;28;20500;-72
2023/02/02 08:56:23;;;;;;;12.07;9.00;;;9.50;99.90;;;;;;5050527;28;20550;-72
2023/02/02 08:58:51;;;;;;;12.20;8.93;;;9.50;99.90;;;;;;5052293;28;20186;-71
2023/02/02 09:01:20;;;;;;;10.67;9.40;;;9.50;99.90;;;;;;5033446;28;20430;-71
2023/02/02 09:03:47;;;;;;;13.23;8.30;;;9.50;99.90;;;;;;5014842;28;20428;-71
2023/02/02 09:06:15;;;;;;;12.90;9.27;;;9.50;99.90;;;;;;5038421;28;20669;-71
2023/02/02 09:08:41;;;;;;;13.83;8.50;;;9.50;99.90;;;;;;5040057;28;20461;-71
2023/02/02 09:11:13;;;;;;;13.97;10.70;;;9.50;99.90;;;;;;5051849;28;20443;-71
2023/02/02 09:13:40;;;;;;;13.03;9.93;;;9.50;99.90;;;;;;5044353;28;20190;-72
2023/02/02 09:16:09;;;;;;;10.60;7.67;;;9.40;99.90;;;;;;5032209;28;20413;-71
2023/02/02 09:18:34;;;;;;;9.63;8.53;;;9.40;99.90;;;;;;5032373;28;20424;-71
2023/02/02 09:21:05;;;;;;;10.20;7.27;;;9.50;99.90;;;;;;5035154;28;20994;-71
2023/02/02 09:23:34;;;;;;;11.33;8.90;;;9.40;99.90;;;;;;5029777;28;20187;-71
2023/02/02 09:26:13;;;;;;;9.93;7.60;;;9.40;99.90;;;;;;5024832;28;20451;-71
2023/02/02 09:28:40;;;;;;;12.33;10.10;;;9.40;99.90;;;;;;5038420;28;20471;-71
2023/02/02 09:31:06;;;;;;;9.97;8.63;;;9.40;99.90;;;;;;5055446;28;20416;-72
2023/02/02 09:33:32;;;;;;;12.20;8.40;;;9.50;99.90;;;;;;5045715;28;20767;-72
2023/02/02 09:36:25;;;;;;;11.10;7.73;;;9.40;99.90;;;;;;5035862;28;20413;-72
2023/02/02 09:38:51;;;;;;;10.47;9.37;;;9.50;99.90;;;;;;5033174;28;20469;-72
2023/02/02 09:41:25;;;;;;;10.47;9.47;;;9.50;99.90;;;;;;5035372;28;20873;-71
2023/02/02 09:44:13;;;;;;;8.33;7.63;;;9.50;99.90;;;;;;5036132;28;20418;-72
2023/02/02 09:47:04;;;;;;;11.17;10.17;;;9.60;99.90;;;;;;5036039;28;20411;-72
2023/02/02 09:49:50;;;;;;;10.57;7.47;;;9.60;99.90;;;;;;5036271;28;20417;-72
2023/02/02 09:52:43;;;;;;;10.40;9.40;;;9.50;99.90;;;;;;5035307;28;20414;-72
2023/02/02 09:55:26;;;;;;;9.37;8.43;;;9.60;99.90;;;;;;5034747;28;20422;-72
2023/02/02 09:58:09;;;;;;;8.70;7.80;;;9.60;99.90;;;;;;5018056;28;20759;-71
2023/02/02 10:00:44;;;;;;;10.80;8.00;;;9.60;99.90;;;;;;5018274;28;20480;-71
2023/02/02 10:03:39;;;;;;;8.97;8.07;;;9.60;99.90;;;;;;5017393;28;20439;-72
2023/02/02 10:06:40;;;;;;;10.30;9.33;;;9.60;99.90;;;;;;5027687;28;20977;-72
2023/02/02 10:09:09;;;;;;;9.30;8.50;;;9.50;99.90;;;;;;5017270;28;20987;-72
2023/02/02 10:11:57;;;;;;;10.73;9.70;;;9.60;99.90;;;;;;5035832;28;20426;-72
2023/02/02 10:14:40;;;;;;;11.73;10.50;;;9.50;99.90;;;;;;5035422;28;20496;-72
2023/02/02 10:17:35;;;;;;;11.67;9.63;;;9.60;99.90;;;;;;5034952;28;20406;-72
2023/02/02 10:20:24;;;;;;;11.00;9.90;;;9.50;99.90;;;;;;5034842;28;20428;-72
2023/02/02 10:22:50;;;;;;;12.00;9.60;;;9.60;99.90;;;;;;5035412;28;20413;-72
2023/02/02 10:25:17;;;;;;;11.97;9.80;;;9.60;99.90;;;;;;5016397;28;20430;-72
2023/02/02 10:27:58;;;;;;;16.30;10.33;;;9.60;99.90;;;;;;5035176;28;20453;-72
2023/02/02 10:30:35;;;;;;;12.03;9.80;;;9.60;99.90;;;;;;5035631;28;20417;-72
2023/02/02 10:33:06;;;;;;;16.27;12.17;;;9.60;99.90;;;;;;5001086;28;20393;-72
2023/02/02 10:35:47;;;;;;;13.23;10.90;;;9.60;99.90;;;;;;5017363;28;20940;-71
2023/02/02 10:38:24;;;;;;;14.40;12.17;;;9.60;99.90;;;;;;5034246;28;20399;-73
2023/02/02 10:41:05;;;;;;;12.30;11.00;;;9.60;99.90;;;;;;5034774;28;20465;-72
2023/02/02 10:43:45;;;;;;;18.83;12.63;;;9.70;99.90;;;;;;5016978;28;20483;-72
2023/02/02 10:46:34;;;;;;;16.60;14.17;;;9.70;99.90;;;;;;5034421;28;20475;-72
2023/02/02 10:49:31;;;;;;;19.13;13.40;;;9.70;99.90;;;;;;5034256;28;20454;-72
2023/02/02 10:52:09;;;;;;;18.27;13.93;;;9.80;99.90;;;;;;5034923;28;20410;-72
2023/02/02 10:55:13;;;;;;;22.30;15.50;;;9.80;99.90;;;;;;5034780;28;20452;-72
2023/02/02 10:58:11;;;;;;;22.67;15.73;;;9.70;99.90;;;;;;5034819;28;20405;-72
2023/02/02 11:00:52;;;;;;;19.60;14.87;;;9.70;99.90;;;;;;5034777;28;20416;-71
2023/02/02 11:03:22;;;;;;;22.33;16.17;;;9.70;99.90;;;;;;5033618;28;20401;-72
2023/02/02 11:08:34;;;;;;;23.83;17.37;;;9.60;99.90;;;;;;5034084;28;20457;-72
2023/02/02 11:11:40;;;;;;;26.27;17.17;;;9.70;99.90;;;;;;5033659;28;20991;-73
2023/02/02 11:14:20;;;;;;;20.53;16.07;;;9.70;99.90;;;;;;5033797;28;20483;-71
2023/02/02 11:17:00;;;;;;;21.40;16.00;;;9.70;99.90;;;;;;5036199;28;20444;-71
2023/02/02 11:19:29;;;;;;;21.20;17.70;;;9.70;99.90;;;;;;5054285;28;20451;-72
2023/02/02 11:21:57;;;;;;;20.53;15.23;;;9.70;99.90;;;;;;5036444;28;20409;-71
2023/02/02 11:24:35;;;;;;;23.50;15.63;;;9.80;99.90;;;;;;5053454;28;20459;-72
2023/02/02 11:27:07;;;;;;;23.10;15.80;;;9.70;99.90;;;;;;5053723;28;20403;-73
2023/02/02 11:29:38;;;;;;;25.70;15.60;;;9.70;99.90;;;;;;5054272;28;20398;-72
2023/02/02 11:32:31;;;;;;;20.43;16.03;;;9.70;99.90;;;;;;5053390;28;20422;-72
2023/02/02 11:35:02;;;;;;;20.73;15.50;;;9.70;99.90;;;;;;5053802;28;20421;-71
2023/02/02 11:37:30;;;;;;;20.20;15.17;;;9.80;99.90;;;;;;5053564;28;20424;-71
2023/02/02 11:40:22;;;;;;;21.47;14.77;;;9.80;99.90;;;;;;5053582;28;20855;-71
2023/02/02 11:42:50;;;;;;;18.30;13.97;;;9.80;99.90;;;;;;5053648;28;20419;-72
2023/02/02 11:45:34;;;;;;;18.03;14.50;;;9.80;99.90;;;;;;5035289;28;20474;-72
2023/02/02 11:48:21;;;;;;;21.40;13.50;;;9.90;99.90;;;;;;5025243;28;20461;-71
2023/02/02 11:50:54;;;;;;;19.17;13.60;;;9.90;99.90;;;;;;5052398;28;20484;-72
2023/02/02 11:53:29;;;;;;;17.30;14.23;;;9.90;99.90;;;;;;5052540;28;20405;-72
2023/02/02 11:55:57;;;;;;;22.83;14.33;;;9.90;99.90;;;;;;5053194;28;20386;-71
2023/02/02 11:58:28;;;;;;;21.00;14.60;;;10.00;99.90;;;;;;5052410;28;20743;-72
2023/02/02 12:01:00;;;;;;;18.23;12.87;;;10.00;99.90;;;;;;5053472;28;20424;-72
2023/02/02 12:03:34;;;;;;;16.60;14.90;;;10.00;99.90;;;;;;5052614;28;20753;-72
2023/02/02 12:06:03;;;;;;;15.97;12.50;;;10.00;99.90;;;;;;5053333;28;20404;-71
2023/02/02 12:08:29;;;;;;;16.33;12.37;;;10.10;99.90;;;;;;5035362;28;20457;-72
2023/02/02 12:11:02;;;;;;;21.00;13.77;;;10.00;99.90;;;;;;5052903;28;20439;-72
2023/02/02 12:13:50;;;;;;;20.47;13.67;;;9.90;99.90;;;;;;5052899;28;20804;-72
2023/02/02 12:16:37;;;;;;;16.73;13.83;;;9.90;99.90;;;;;;5052593;28;20488;-71
2023/02/02 12:19:23;;;;;;;16.07;13.27;;;10.00;99.90;;;;;;5015254;28;20961;-72
2023/02/02 12:22:10;;;;;;;17.93;13.03;;;10.10;99.90;;;;;;5032746;28;20924;-72
2023/02/02 12:25:08;;;;;;;17.93;12.80;;;9.90;99.90;;;;;;5033252;28;20395;-71
2023/02/02 12:27:48;;;;;;;15.33;12.47;;;9.90;99.90;;;;;;5005312;28;20512;-72
2023/02/02 12:30:34;;;;;;;18.03;13.20;;;9.90;99.90;;;;;;5032365;28;20415;-72
2023/02/02 12:33:31;;;;;;;17.57;11.93;;;9.80;99.90;;;;;;5033122;28;20426;-72
2023/02/02 12:36:11;;;;;;;16.60;12.93;;;9.80;99.90;;;;;;5041673;28;20924;-72
2023/02/02 12:39:10;;;;;;;18.83;12.33;;;9.90;99.90;;;;;;5052896;28;20502;-72
2023/02/02 12:42:06;;;;;;;12.17;10.87;;;9.90;99.90;;;;;;5052234;28;20559;-72
2023/02/02 12:45:20;;;;;;;14.90;11.27;;;9.90;99.90;;;;;;5052977;28;20492;-72
2023/02/02 12:48:13;;;;;;;14.90;11.13;;;10.00;99.90;;;;;;5043728;28;20450;-72
2023/02/02 12:50:56;;;;;;;15.50;9.53;;;10.00;99.90;;;;;;5052935;28;20762;-72
2023/02/02 12:53:43;;;;;;;15.43;10.03;;;9.90;99.90;;;;;;5052165;28;20404;-71
2023/02/02 12:56:35;;;;;;;14.30;10.50;;;9.90;99.90;;;;;;5038102;28;20518;-72
2023/02/02 12:59:01;;;;;;;11.30;8.83;;;9.90;99.90;;;;;;5043688;28;20520;-72
2023/02/02 13:01:47;;;;;;;12.03;9.13;;;9.90;99.90;;;;;;5051917;28;20455;-73
2023/02/02 13:04:34;;;;;;;10.77;8.87;;;9.90;99.90;;;;;;5052215;28;20480;-73
2023/02/02 13:07:24;;;;;;;11.90;9.27;;;9.90;99.90;;;;;;5052555;28;20404;-72
2023/02/02 13:10:10;;;;;;;12.20;8.30;;;9.90;99.90;;;;;;5052399;28;20524;-72
2023/02/02 13:12:52;;;;;;;12.90;8.90;;;9.90;99.90;;;;;;5052218;28;20401;-71
2023/02/02 13:15:26;;;;;;;16.87;8.83;;;9.90;99.90;;;;;;5051793;28;20408;-72
2023/02/02 13:17:58;;;;;;;15.23;11.30;;;9.90;99.90;;;;;;5052358;28;20419;-72
2023/02/02 13:20:55;;;;;;;17.80;9.50;;;9.90;99.90;;;;;;5051984;28;20481;-71